sensor_id;sensor_type;location;lat;lon;timestamp;pressure;altitude;pressure_sealevel;temperature;humidity
34506;BME280;20748;42.632;23.198;2022-10-23T00:00:18;92557.78;;;13.06;60.11
34506;BME280;20748;42.632;23.198;2022-10-23T00:02:51;92549.81;;;13.11;59.43
34506;BME280;20748;42.632;23.198;2022-10-23T00:05:25;92551.69;;;13.10;59.25
34506;BME280;20748;42.632;23.198;2022-10-23T00:07:58;92565.06;;;13.09;59.62
34506;BME280;20748;42.632;23.198;2022-10-23T00:10:31;92553.81;;;13.08;59.56
34506;BME280;20748;42.632;23.198;2022-10-23T00:13:03;92556.31;;;13.13;59.60
34506;BME280;20748;42.632;23.198;2022-10-23T00:15:36;92554.00;;;13.12;58.76
34506;BME280;20748;42.632;23.198;2022-10-23T00:18:09;92560.00;;;13.12;59.38
34506;BME280;20748;42.632;23.198;2022-10-23T00:20:41;92551.50;;;13.07;60.44
34506;BME280;20748;42.632;23.198;2022-10-23T00:23:15;92535.28;;;13.05;58.86
34506;BME280;20748;42.632;23.198;2022-10-23T00:25:47;92546.84;;;13.03;60.01
34506;BME280;20748;42.632;23.198;2022-10-23T00:28:20;92521.69;;;12.94;61.24
34506;BME280;20748;42.632;23.198;2022-10-23T00:30:53;92552.03;;;12.95;61.34
34506;BME280;20748;42.632;23.198;2022-10-23T00:33:25;92557.56;;;12.70;62.51
34506;BME280;20748;42.632;23.198;2022-10-23T00:35:58;92564.84;;;12.73;63.12
34506;BME280;20748;42.632;23.198;2022-10-23T00:38:30;92570.06;;;12.73;62.67
34506;BME280;20748;42.632;23.198;2022-10-23T00:41:04;92561.63;;;12.77;62.25
34506;BME280;20748;42.632;23.198;2022-10-23T00:43:56;92576.38;;;12.72;62.13
34506;BME280;20748;42.632;23.198;2022-10-23T00:46:29;92575.78;;;12.75;61.04
34506;BME280;20748;42.632;23.198;2022-10-23T00:49:03;92579.66;;;12.78;61.13
34506;BME280;20748;42.632;23.198;2022-10-23T00:51:40;92569.78;;;12.75;61.89
34506;BME280;20748;42.632;23.198;2022-10-23T00:54:16;92587.44;;;12.69;62.56
34506;BME280;20748;42.632;23.198;2022-10-23T00:57:00;92574.66;;;12.68;62.84
34506;BME280;20748;42.632;23.198;2022-10-23T00:59:33;92585.41;;;12.66;62.52
34506;BME280;20748;42.632;23.198;2022-10-23T01:02:07;92574.78;;;12.62;63.62
34506;BME280;20748;42.632;23.198;2022-10-23T01:04:40;92576.41;;;12.58;63.35
34506;BME280;20748;42.632;23.198;2022-10-23T01:07:17;92584.03;;;12.32;64.86
34506;BME280;20748;42.632;23.198;2022-10-23T01:09:56;92577.75;;;12.33;65.15
34506;BME280;20748;42.632;23.198;2022-10-23T01:12:34;92582.88;;;12.38;65.17
34506;BME280;20748;42.632;23.198;2022-10-23T01:15:14;92564.38;;;12.34;64.73
34506;BME280;20748;42.632;23.198;2022-10-23T01:17:52;92587.66;;;12.08;65.78
34506;BME280;20748;42.632;23.198;2022-10-23T01:20:39;92579.34;;;12.06;66.23
34506;BME280;20748;42.632;23.198;2022-10-23T01:23:25;92586.00;;;11.98;67.08
34506;BME280;20748;42.632;23.198;2022-10-23T01:26:10;92586.75;;;11.99;66.81
34506;BME280;20748;42.632;23.198;2022-10-23T01:28:49;92571.00;;;12.04;65.69
34506;BME280;20748;42.632;23.198;2022-10-23T01:31:31;92587.75;;;12.17;65.52
34506;BME280;20748;42.632;23.198;2022-10-23T01:34:08;92595.97;;;11.96;67.08
34506;BME280;20748;42.632;23.198;2022-10-23T01:36:47;92585.34;;;12.06;66.87
34506;BME280;20748;42.632;23.198;2022-10-23T01:39:24;92598.31;;;12.12;67.33
34506;BME280;20748;42.632;23.198;2022-10-23T01:42:04;92594.63;;;12.13;67.76
34506;BME280;20748;42.632;23.198;2022-10-23T01:44:41;92608.56;;;12.22;68.22
34506;BME280;20748;42.632;23.198;2022-10-23T01:47:17;92606.94;;;12.26;67.48
34506;BME280;20748;42.632;23.198;2022-10-23T01:50:03;92587.84;;;12.26;67.54
34506;BME280;20748;42.632;23.198;2022-10-23T01:52:37;92593.25;;;12.29;67.99
34506;BME280;20748;42.632;23.198;2022-10-23T01:55:11;92596.06;;;12.19;68.32
34506;BME280;20748;42.632;23.198;2022-10-23T01:57:46;92594.63;;;12.27;68.31
34506;BME280;20748;42.632;23.198;2022-10-23T02:00:21;92601.00;;;12.34;68.53
34506;BME280;20748;42.632;23.198;2022-10-23T02:02:57;92594.81;;;12.30;69.17
34506;BME280;20748;42.632;23.198;2022-10-23T02:08:25;92600.41;;;12.38;68.58
34506;BME280;20748;42.632;23.198;2022-10-23T02:11:02;92599.63;;;12.37;69.23
34506;BME280;20748;42.632;23.198;2022-10-23T02:13:43;92608.75;;;12.26;68.77
34506;BME280;20748;42.632;23.198;2022-10-23T02:16:25;92594.41;;;12.37;68.05
34506;BME280;20748;42.632;23.198;2022-10-23T02:19:08;92594.53;;;12.18;69.03
34506;BME280;20748;42.632;23.198;2022-10-23T02:21:50;92601.81;;;12.21;68.65
34506;BME280;20748;42.632;23.198;2022-10-23T02:24:27;92608.06;;;12.20;68.99
34506;BME280;20748;42.632;23.198;2022-10-23T02:27:07;92597.41;;;12.30;68.53
34506;BME280;20748;42.632;23.198;2022-10-23T02:29:44;92593.63;;;12.22;68.39
34506;BME280;20748;42.632;23.198;2022-10-23T02:32:21;92600.22;;;12.34;68.12
34506;BME280;20748;42.632;23.198;2022-10-23T02:34:56;92604.41;;;12.35;68.13
34506;BME280;20748;42.632;23.198;2022-10-23T02:37:28;92596.56;;;12.35;68.21
34506;BME280;20748;42.632;23.198;2022-10-23T02:40:01;92604.88;;;12.37;68.07
34506;BME280;20748;42.632;23.198;2022-10-23T02:42:47;92604.31;;;12.26;69.40
34506;BME280;20748;42.632;23.198;2022-10-23T02:45:28;92600.31;;;12.29;69.29
34506;BME280;20748;42.632;23.198;2022-10-23T02:48:08;92596.41;;;12.40;68.36
34506;BME280;20748;42.632;23.198;2022-10-23T02:50:49;92595.28;;;12.32;69.33
34506;BME280;20748;42.632;23.198;2022-10-23T02:53:32;92599.75;;;12.18;69.84
34506;BME280;20748;42.632;23.198;2022-10-23T02:56:11;92602.09;;;12.19;70.13
34506;BME280;20748;42.632;23.198;2022-10-23T02:58:50;92604.31;;;12.26;69.82
34506;BME280;20748;42.632;23.198;2022-10-23T03:01:34;92607.31;;;12.19;70.22
34506;BME280;20748;42.632;23.198;2022-10-23T03:04:13;92616.31;;;12.27;69.81
34506;BME280;20748;42.632;23.198;2022-10-23T03:06:48;92623.59;;;12.16;70.95
34506;BME280;20748;42.632;23.198;2022-10-23T03:09:22;92628.06;;;12.16;70.90
34506;BME280;20748;42.632;23.198;2022-10-23T03:11:57;92630.59;;;12.21;70.29
34506;BME280;20748;42.632;23.198;2022-10-23T03:14:29;92631.25;;;12.27;69.62
34506;BME280;20748;42.632;23.198;2022-10-23T03:17:02;92624.19;;;12.27;69.58
34506;BME280;20748;42.632;23.198;2022-10-23T03:19:35;92634.94;;;12.26;69.64
34506;BME280;20748;42.632;23.198;2022-10-23T03:22:08;92633.28;;;12.16;70.48
34506;BME280;20748;42.632;23.198;2022-10-23T03:24:41;92639.88;;;12.13;71.12
34506;BME280;20748;42.632;23.198;2022-10-23T03:27:13;92642.88;;;12.20;70.61
34506;BME280;20748;42.632;23.198;2022-10-23T03:29:47;92647.03;;;12.21;70.54
34506;BME280;20748;42.632;23.198;2022-10-23T03:32:21;92651.78;;;12.19;70.71
34506;BME280;20748;42.632;23.198;2022-10-23T03:34:54;92651.78;;;12.19;70.66
34506;BME280;20748;42.632;23.198;2022-10-23T03:37:27;92646.56;;;12.19;70.58
34506;BME280;20748;42.632;23.198;2022-10-23T03:39:59;92645.00;;;12.18;70.08
34506;BME280;20748;42.632;23.198;2022-10-23T03:42:35;92648.28;;;12.10;70.36
34506;BME280;20748;42.632;23.198;2022-10-23T03:45:08;92650.78;;;12.01;70.79
34506;BME280;20748;42.632;23.198;2022-10-23T03:47:40;92651.09;;;12.00;70.75
34506;BME280;20748;42.632;23.198;2022-10-23T03:50:14;92645.97;;;11.94;70.54
34506;BME280;20748;42.632;23.198;2022-10-23T03:52:46;92671.13;;;11.90;70.77
34506;BME280;20748;42.632;23.198;2022-10-23T03:55:19;92668.13;;;11.83;71.29
34506;BME280;20748;42.632;23.198;2022-10-23T03:57:51;92671.28;;;11.80;70.88
34506;BME280;20748;42.632;23.198;2022-10-23T04:00:24;92676.06;;;11.78;71.08
34506;BME280;20748;42.632;23.198;2022-10-23T04:02:56;92677.00;;;11.68;70.54
34506;BME280;20748;42.632;23.198;2022-10-23T04:05:30;92671.59;;;11.64;70.65
34506;BME280;20748;42.632;23.198;2022-10-23T04:08:03;92661.25;;;11.40;70.61
34506;BME280;20748;42.632;23.198;2022-10-23T04:10:37;92689.78;;;11.36;71.37
34506;BME280;20748;42.632;23.198;2022-10-23T04:13:10;92692.41;;;11.36;71.28
34506;BME280;20748;42.632;23.198;2022-10-23T04:15:51;92692.34;;;11.22;71.03
34506;BME280;20748;42.632;23.198;2022-10-23T04:18:24;92701.25;;;11.21;71.00
34506;BME280;20748;42.632;23.198;2022-10-23T04:20:57;92700.59;;;11.10;71.30
34506;BME280;20748;42.632;23.198;2022-10-23T04:23:29;92698.56;;;11.07;71.50
34506;BME280;20748;42.632;23.198;2022-10-23T04:26:02;92708.53;;;11.05;71.72
34506;BME280;20748;42.632;23.198;2022-10-23T04:28:36;92713.25;;;11.03;71.82
34506;BME280;20748;42.632;23.198;2022-10-23T04:31:09;92713.09;;;10.94;72.25
34506;BME280;20748;42.632;23.198;2022-10-23T04:33:45;92719.94;;;10.90;72.03
34506;BME280;20748;42.632;23.198;2022-10-23T04:36:31;92711.97;;;10.81;72.50
34506;BME280;20748;42.632;23.198;2022-10-23T04:39:11;92710.47;;;10.75;73.29
34506;BME280;20748;42.632;23.198;2022-10-23T04:41:45;92723.81;;;10.73;73.27
34506;BME280;20748;42.632;23.198;2022-10-23T04:44:18;92712.44;;;10.64;73.11
34506;BME280;20748;42.632;23.198;2022-10-23T04:46:50;92715.41;;;10.33;73.34
34506;BME280;20748;42.632;23.198;2022-10-23T04:49:23;92715.31;;;10.43;73.13
34506;BME280;20748;42.632;23.198;2022-10-23T04:52:16;92715.19;;;10.29;74.76
34506;BME280;20748;42.632;23.198;2022-10-23T04:55:24;92721.34;;;9.85;76.42
34506;BME280;20748;42.632;23.198;2022-10-23T04:58:17;92719.13;;;9.73;77.74
34506;BME280;20748;42.632;23.198;2022-10-23T05:00:50;92724.59;;;9.71;77.28
34506;BME280;20748;42.632;23.198;2022-10-23T05:03:28;92729.56;;;9.73;76.71
34506;BME280;20748;42.632;23.198;2022-10-23T05:06:00;92732.53;;;9.56;74.86
34506;BME280;20748;42.632;23.198;2022-10-23T05:08:44;92732.03;;;9.53;76.34
34506;BME280;20748;42.632;23.198;2022-10-23T05:11:39;92735.22;;;9.45;77.31
34506;BME280;20748;42.632;23.198;2022-10-23T05:14:13;92738.16;;;9.68;76.39
34506;BME280;20748;42.632;23.198;2022-10-23T05:16:52;92732.16;;;9.73;76.56
34506;BME280;20748;42.632;23.198;2022-10-23T05:19:31;92738.56;;;9.80;75.80
34506;BME280;20748;42.632;23.198;2022-10-23T05:22:05;92730.69;;;9.91;76.44
34506;BME280;20748;42.632;23.198;2022-10-23T05:24:52;92733.59;;;10.14;76.17
34506;BME280;20748;42.632;23.198;2022-10-23T05:27:28;92746.97;;;10.31;78.08
34506;BME280;20748;42.632;23.198;2022-10-23T05:30:01;92744.25;;;10.42;75.12
34506;BME280;20748;42.632;23.198;2022-10-23T05:32:38;92757.22;;;10.52;75.87
34506;BME280;20748;42.632;23.198;2022-10-23T05:35:13;92732.44;;;10.25;77.81
34506;BME280;20748;42.632;23.198;2022-10-23T05:37:53;92755.31;;;10.58;76.77
34506;BME280;20748;42.632;23.198;2022-10-23T05:40:30;92764.78;;;10.73;83.50
34506;BME280;20748;42.632;23.198;2022-10-23T05:43:08;92768.94;;;10.98;83.19
34506;BME280;20748;42.632;23.198;2022-10-23T05:46:06;92768.13;;;10.98;78.18
34506;BME280;20748;42.632;23.198;2022-10-23T05:48:49;92769.97;;;11.17;81.94
34506;BME280;20748;42.632;23.198;2022-10-23T05:51:42;92770.13;;;11.45;83.77
34506;BME280;20748;42.632;23.198;2022-10-23T05:54:34;92769.03;;;11.65;82.06
34506;BME280;20748;42.632;23.198;2022-10-23T05:57:26;92776.53;;;11.72;81.96
34506;BME280;20748;42.632;23.198;2022-10-23T05:59:59;92776.19;;;11.92;80.63
34506;BME280;20748;42.632;23.198;2022-10-23T06:02:31;92777.66;;;11.99;80.57
34506;BME280;20748;42.632;23.198;2022-10-23T06:05:14;92790.69;;;12.04;80.25
34506;BME280;20748;42.632;23.198;2022-10-23T06:07:58;92798.38;;;12.14;80.04
34506;BME280;20748;42.632;23.198;2022-10-23T06:10:31;92798.97;;;12.25;79.82
34506;BME280;20748;42.632;23.198;2022-10-23T06:13:07;92799.66;;;12.31;79.94
34506;BME280;20748;42.632;23.198;2022-10-23T06:15:41;92814.22;;;12.37;80.17
34506;BME280;20748;42.632;23.198;2022-10-23T06:18:25;92814.31;;;12.46;80.46
34506;BME280;20748;42.632;23.198;2022-10-23T06:21:06;92812.47;;;12.46;80.27
34506;BME280;20748;42.632;23.198;2022-10-23T06:23:41;92819.28;;;12.47;81.22
34506;BME280;20748;42.632;23.198;2022-10-23T06:26:28;92810.84;;;12.65;80.82
34506;BME280;20748;42.632;23.198;2022-10-23T06:29:06;92809.19;;;12.69;81.83
34506;BME280;20748;42.632;23.198;2022-10-23T06:31:38;92805.00;;;12.82;80.95
34506;BME280;20748;42.632;23.198;2022-10-23T06:34:11;92808.31;;;12.87;80.46
34506;BME280;20748;42.632;23.198;2022-10-23T06:36:44;92812.97;;;12.91;81.27
34506;BME280;20748;42.632;23.198;2022-10-23T06:39:32;92815.09;;;13.02;79.88
34506;BME280;20748;42.632;23.198;2022-10-23T06:42:36;92818.97;;;13.05;79.23
34506;BME280;20748;42.632;23.198;2022-10-23T06:45:28;92823.41;;;13.19;78.01
34506;BME280;20748;42.632;23.198;2022-10-23T06:48:25;92824.75;;;13.30;78.42
34506;BME280;20748;42.632;23.198;2022-10-23T06:51:11;92825.31;;;13.41;77.96
34506;BME280;20748;42.632;23.198;2022-10-23T06:53:47;92825.63;;;13.53;77.58
34506;BME280;20748;42.632;23.198;2022-10-23T06:56:45;92838.13;;;13.56;75.64
34506;BME280;20748;42.632;23.198;2022-10-23T06:59:18;92850.41;;;13.70;73.75
34506;BME280;20748;42.632;23.198;2022-10-23T07:01:54;92832.50;;;13.86;74.20
34506;BME280;20748;42.632;23.198;2022-10-23T07:04:31;92842.56;;;13.93;74.09
34506;BME280;20748;42.632;23.198;2022-10-23T07:07:05;92840.69;;;14.07;74.62
34506;BME280;20748;42.632;23.198;2022-10-23T07:09:47;92847.72;;;14.21;74.29
34506;BME280;20748;42.632;23.198;2022-10-23T07:12:25;92836.06;;;14.36;73.34
34506;BME280;20748;42.632;23.198;2022-10-23T07:15:19;92826.56;;;14.49;71.84
34506;BME280;20748;42.632;23.198;2022-10-23T07:17:52;92844.84;;;14.63;70.49
34506;BME280;20748;42.632;23.198;2022-10-23T07:20:26;92850.16;;;14.72;69.58
34506;BME280;20748;42.632;23.198;2022-10-23T07:22:59;92842.94;;;14.77;69.72
34506;BME280;20748;42.632;23.198;2022-10-23T07:25:35;92862.56;;;14.80;69.12
34506;BME280;20748;42.632;23.198;2022-10-23T07:28:07;92849.59;;;14.84;68.47
34506;BME280;20748;42.632;23.198;2022-10-23T07:30:40;92852.38;;;14.87;68.15
34506;BME280;20748;42.632;23.198;2022-10-23T07:33:16;92851.75;;;14.82;68.11
34506;BME280;20748;42.632;23.198;2022-10-23T07:36:06;92847.13;;;14.87;68.16
34506;BME280;20748;42.632;23.198;2022-10-23T07:38:38;92843.44;;;14.97;68.36
34506;BME280;20748;42.632;23.198;2022-10-23T07:41:11;92846.75;;;15.12;67.58
34506;BME280;20748;42.632;23.198;2022-10-23T07:43:45;92853.44;;;15.27;66.63
34506;BME280;20748;42.632;23.198;2022-10-23T07:46:18;92847.28;;;15.40;66.38
34506;BME280;20748;42.632;23.198;2022-10-23T07:48:52;92848.69;;;15.55;66.21
34506;BME280;20748;42.632;23.198;2022-10-23T07:51:26;92848.25;;;15.62;65.39
34506;BME280;20748;42.632;23.198;2022-10-23T07:54:03;92846.22;;;15.77;64.41
34506;BME280;20748;42.632;23.198;2022-10-23T07:56:54;92837.72;;;15.89;64.65
34506;BME280;20748;42.632;23.198;2022-10-23T07:59:33;92842.72;;;15.99;63.35
34506;BME280;20748;42.632;23.198;2022-10-23T08:02:15;92838.19;;;16.17;63.89
34506;BME280;20748;42.632;23.198;2022-10-23T08:04:49;92842.34;;;16.27;63.75
34506;BME280;20748;42.632;23.198;2022-10-23T08:07:37;92839.25;;;16.34;63.07
34506;BME280;20748;42.632;23.198;2022-10-23T08:10:11;92846.38;;;16.24;62.61
34506;BME280;20748;42.632;23.198;2022-10-23T08:12:46;92844.66;;;16.37;62.79
34506;BME280;20748;42.632;23.198;2022-10-23T08:15:19;92847.00;;;16.30;62.81
34506;BME280;20748;42.632;23.198;2022-10-23T08:17:59;92836.31;;;16.35;62.55
34506;BME280;20748;42.632;23.198;2022-10-23T08:20:47;92846.72;;;16.05;62.98
34506;BME280;20748;42.632;23.198;2022-10-23T08:23:19;92846.09;;;16.17;62.81
34506;BME280;20748;42.632;23.198;2022-10-23T08:25:56;92841.38;;;16.58;62.50
34506;BME280;20748;42.632;23.198;2022-10-23T08:28:29;92844.16;;;16.62;62.78
34506;BME280;20748;42.632;23.198;2022-10-23T08:31:08;92857.84;;;16.29;62.60
34506;BME280;20748;42.632;23.198;2022-10-23T08:33:41;92852.03;;;16.62;62.40
34506;BME280;20748;42.632;23.198;2022-10-23T08:36:17;92849.16;;;16.37;63.47
34506;BME280;20748;42.632;23.198;2022-10-23T08:38:51;92846.06;;;16.35;63.53
34506;BME280;20748;42.632;23.198;2022-10-23T08:41:28;92848.91;;;16.69;63.76
34506;BME280;20748;42.632;23.198;2022-10-23T08:44:25;92846.88;;;16.83;62.14
34506;BME280;20748;42.632;23.198;2022-10-23T08:47:03;92844.16;;;17.01;62.19
34506;BME280;20748;42.632;23.198;2022-10-23T08:49:58;92855.69;;;16.87;62.15
34506;BME280;20748;42.632;23.198;2022-10-23T08:52:36;92845.41;;;16.95;61.78
34506;BME280;20748;42.632;23.198;2022-10-23T08:55:15;92860.13;;;17.04;61.80
34506;BME280;20748;42.632;23.198;2022-10-23T08:57:54;92843.06;;;17.02;61.97
34506;BME280;20748;42.632;23.198;2022-10-23T09:00:29;92855.44;;;17.01;61.89
34506;BME280;20748;42.632;23.198;2022-10-23T09:03:03;92843.59;;;17.25;61.42
34506;BME280;20748;42.632;23.198;2022-10-23T09:05:49;92833.38;;;17.24;60.54
34506;BME280;20748;42.632;23.198;2022-10-23T09:08:38;92840.84;;;17.43;60.67
34506;BME280;20748;42.632;23.198;2022-10-23T09:11:20;92838.31;;;17.55;59.42
34506;BME280;20748;42.632;23.198;2022-10-23T09:14:33;92839.66;;;17.62;59.31
34506;BME280;20748;42.632;23.198;2022-10-23T09:17:15;92839.84;;;17.78;59.23
34506;BME280;20748;42.632;23.198;2022-10-23T09:19:59;92835.19;;;17.96;58.18
34506;BME280;20748;42.632;23.198;2022-10-23T09:22:33;92839.13;;;17.90;58.57
34506;BME280;20748;42.632;23.198;2022-10-23T09:25:09;92837.59;;;18.10;57.72
34506;BME280;20748;42.632;23.198;2022-10-23T09:27:45;92835.72;;;18.44;56.44
34506;BME280;20748;42.632;23.198;2022-10-23T09:30:30;92839.38;;;18.52;55.84
34506;BME280;20748;42.632;23.198;2022-10-23T09:33:13;92832.66;;;18.55;56.17
34506;BME280;20748;42.632;23.198;2022-10-23T09:35:55;92827.94;;;18.73;55.38
34506;BME280;20748;42.632;23.198;2022-10-23T09:38:30;92828.09;;;18.89;55.22
34506;BME280;20748;42.632;23.198;2022-10-23T09:41:06;92822.47;;;18.90;54.80
34506;BME280;20748;42.632;23.198;2022-10-23T09:43:42;92828.53;;;18.91;54.61
34506;BME280;20748;42.632;23.198;2022-10-23T09:46:14;92828.00;;;19.35;53.35
34506;BME280;20748;42.632;23.198;2022-10-23T09:48:56;92830.03;;;19.67;51.56
34506;BME280;20748;42.632;23.198;2022-10-23T09:51:33;92830.88;;;19.83;51.98
34506;BME280;20748;42.632;23.198;2022-10-23T09:54:13;92830.06;;;19.95;50.09
34506;BME280;20748;42.632;23.198;2022-10-23T09:56:47;92821.72;;;20.22;48.55
34506;BME280;20748;42.632;23.198;2022-10-23T09:59:26;92825.19;;;20.55;49.04
34506;BME280;20748;42.632;23.198;2022-10-23T10:02:01;92821.97;;;20.77;47.05
34506;BME280;20748;42.632;23.198;2022-10-23T10:04:56;92819.66;;;20.60;46.64
34506;BME280;20748;42.632;23.198;2022-10-23T10:07:29;92818.66;;;20.81;46.87
34506;BME280;20748;42.632;23.198;2022-10-23T10:10:13;92819.00;;;20.95;46.68
34506;BME280;20748;42.632;23.198;2022-10-23T10:12:49;92816.91;;;20.72;46.80
34506;BME280;20748;42.632;23.198;2022-10-23T10:15:26;92811.44;;;20.81;46.51
34506;BME280;20748;42.632;23.198;2022-10-23T10:18:08;92812.06;;;20.90;46.69
34506;BME280;20748;42.632;23.198;2022-10-23T10:20:55;92807.00;;;21.17;44.94
34506;BME280;20748;42.632;23.198;2022-10-23T10:23:35;92797.31;;;21.61;44.92
34506;BME280;20748;42.632;23.198;2022-10-23T10:26:18;92792.34;;;21.24;45.54
34506;BME280;20748;42.632;23.198;2022-10-23T10:29:04;92795.63;;;21.17;46.93
34506;BME280;20748;42.632;23.198;2022-10-23T10:31:53;92793.22;;;21.12;45.58
34506;BME280;20748;42.632;23.198;2022-10-23T10:34:40;92789.94;;;21.35;43.94
34506;BME280;20748;42.632;23.198;2022-10-23T10:37:20;92789.56;;;21.52;43.48
34506;BME280;20748;42.632;23.198;2022-10-23T10:40:00;92789.75;;;21.63;43.20
34506;BME280;20748;42.632;23.198;2022-10-23T10:42:54;92783.84;;;21.90;43.03
34506;BME280;20748;42.632;23.198;2022-10-23T10:48:33;92788.41;;;22.09;42.57
34506;BME280;20748;42.632;23.198;2022-10-23T10:51:29;92778.13;;;22.07;41.93
34506;BME280;20748;42.632;23.198;2022-10-23T10:54:22;92783.84;;;22.09;41.67
34506;BME280;20748;42.632;23.198;2022-10-23T10:57:05;92782.75;;;22.10;41.21
34506;BME280;20748;42.632;23.198;2022-10-23T10:59:49;92770.88;;;22.51;40.64
34506;BME280;20748;42.632;23.198;2022-10-23T11:02:26;92774.09;;;21.94;40.91
34506;BME280;20748;42.632;23.198;2022-10-23T11:05:08;92770.03;;;22.23;40.69
34506;BME280;20748;42.632;23.198;2022-10-23T11:07:52;92761.94;;;22.16;40.07
34506;BME280;20748;42.632;23.198;2022-10-23T11:10:26;92763.31;;;22.30;39.77
34506;BME280;20748;42.632;23.198;2022-10-23T11:12:59;92769.66;;;22.45;39.30
34506;BME280;20748;42.632;23.198;2022-10-23T11:15:36;92754.41;;;22.42;39.81
34506;BME280;20748;42.632;23.198;2022-10-23T11:18:14;92757.38;;;21.93;39.96
34506;BME280;20748;42.632;23.198;2022-10-23T11:21:08;92754.66;;;22.33;39.13
34506;BME280;20748;42.632;23.198;2022-10-23T11:27:16;92741.09;;;22.61;38.26
34506;BME280;20748;42.632;23.198;2022-10-23T11:30:03;92734.09;;;21.86;38.26
34506;BME280;20748;42.632;23.198;2022-10-23T11:32:52;92741.66;;;22.51;38.32
34506;BME280;20748;42.632;23.198;2022-10-23T11:35:44;92737.97;;;22.56;38.65
34506;BME280;20748;42.632;23.198;2022-10-23T11:38:23;92737.47;;;22.26;37.37
34506;BME280;20748;42.632;23.198;2022-10-23T11:40:59;92733.66;;;22.51;37.06
34506;BME280;20748;42.632;23.198;2022-10-23T11:43:46;92740.00;;;22.43;37.76
34506;BME280;20748;42.632;23.198;2022-10-23T11:46:30;92735.72;;;22.58;37.26
34506;BME280;20748;42.632;23.198;2022-10-23T11:49:04;92726.31;;;22.64;37.71
34506;BME280;20748;42.632;23.198;2022-10-23T11:51:38;92728.75;;;22.06;38.27
34506;BME280;20748;42.632;23.198;2022-10-23T11:54:23;92723.66;;;22.40;38.82
34506;BME280;20748;42.632;23.198;2022-10-23T11:57:09;92715.03;;;22.71;37.53
34506;BME280;20748;42.632;23.198;2022-10-23T11:59:51;92717.38;;;22.76;37.36
34506;BME280;20748;42.632;23.198;2022-10-23T12:02:28;92710.06;;;22.69;34.67
34506;BME280;20748;42.632;23.198;2022-10-23T12:05:04;92708.03;;;22.62;33.88
34506;BME280;20748;42.632;23.198;2022-10-23T12:07:39;92715.28;;;22.89;34.07
34506;BME280;20748;42.632;23.198;2022-10-23T12:10:20;92711.94;;;22.69;33.40
34506;BME280;20748;42.632;23.198;2022-10-23T12:12:57;92706.44;;;22.81;33.96
34506;BME280;20748;42.632;23.198;2022-10-23T12:15:30;92714.22;;;22.93;33.12
34506;BME280;20748;42.632;23.198;2022-10-23T12:18:09;92699.84;;;22.98;34.46
34506;BME280;20748;42.632;23.198;2022-10-23T12:20:47;92706.50;;;22.61;34.03
34506;BME280;20748;42.632;23.198;2022-10-23T12:23:44;92699.41;;;22.69;33.92
34506;BME280;20748;42.632;23.198;2022-10-23T12:26:53;92693.34;;;22.96;33.37
34506;BME280;20748;42.632;23.198;2022-10-23T12:29:40;92688.19;;;23.10;32.49
34506;BME280;20748;42.632;23.198;2022-10-23T12:32:27;92693.69;;;23.21;32.13
34506;BME280;20748;42.632;23.198;2022-10-23T12:35:27;92690.31;;;23.28;33.08
34506;BME280;20748;42.632;23.198;2022-10-23T12:38:12;92693.63;;;23.17;32.91
34506;BME280;20748;42.632;23.198;2022-10-23T12:40:45;92687.19;;;23.18;32.95
34506;BME280;20748;42.632;23.198;2022-10-23T12:43:27;92693.34;;;22.96;32.77
34506;BME280;20748;42.632;23.198;2022-10-23T12:46:03;92686.31;;;23.11;32.87
34506;BME280;20748;42.632;23.198;2022-10-23T12:48:46;92707.09;;;23.01;32.83
34506;BME280;20748;42.632;23.198;2022-10-23T12:51:22;92702.59;;;23.05;32.59
34506;BME280;20748;42.632;23.198;2022-10-23T12:53:55;92685.66;;;22.90;32.74
34506;BME280;20748;42.632;23.198;2022-10-23T12:56:34;92699.47;;;23.00;33.07
34506;BME280;20748;42.632;23.198;2022-10-23T12:59:13;92709.75;;;23.01;34.13
34506;BME280;20748;42.632;23.198;2022-10-23T13:01:46;92709.50;;;22.83;33.50
34506;BME280;20748;42.632;23.198;2022-10-23T13:04:27;92706.69;;;22.72;33.65
34506;BME280;20748;42.632;23.198;2022-10-23T13:07:01;92707.47;;;22.49;34.63
34506;BME280;20748;42.632;23.198;2022-10-23T13:09:39;92708.22;;;22.50;34.73
34506;BME280;20748;42.632;23.198;2022-10-23T13:12:39;92700.03;;;22.59;34.18
34506;BME280;20748;42.632;23.198;2022-10-23T13:15:15;92700.13;;;22.43;33.89
34506;BME280;20748;42.632;23.198;2022-10-23T13:18:00;92698.13;;;22.12;34.04
34506;BME280;20748;42.632;23.198;2022-10-23T13:20:35;92701.75;;;21.61;35.03
34506;BME280;20748;42.632;23.198;2022-10-23T13:23:10;92702.34;;;21.94;34.98
34506;BME280;20748;42.632;23.198;2022-10-23T13:25:52;92698.00;;;22.05;35.51
34506;BME280;20748;42.632;23.198;2022-10-23T13:28:27;92689.94;;;21.78;35.94
34506;BME280;20748;42.632;23.198;2022-10-23T13:31:24;92697.78;;;22.14;36.23
34506;BME280;20748;42.632;23.198;2022-10-23T13:34:21;92689.84;;;22.18;35.72
34506;BME280;20748;42.632;23.198;2022-10-23T13:36:58;92698.75;;;22.06;35.14
34506;BME280;20748;42.632;23.198;2022-10-23T13:39:32;92704.63;;;22.15;34.76
34506;BME280;20748;42.632;23.198;2022-10-23T13:42:10;92694.97;;;22.07;34.06
34506;BME280;20748;42.632;23.198;2022-10-23T13:44:43;92706.44;;;22.11;34.41
34506;BME280;20748;42.632;23.198;2022-10-23T13:47:16;92705.31;;;22.12;34.22
34506;BME280;20748;42.632;23.198;2022-10-23T13:49:48;92702.81;;;21.99;33.96
34506;BME280;20748;42.632;23.198;2022-10-23T13:52:21;92704.44;;;22.04;32.98
34506;BME280;20748;42.632;23.198;2022-10-23T13:54:54;92707.22;;;22.11;32.32
34506;BME280;20748;42.632;23.198;2022-10-23T13:57:27;92712.81;;;22.06;32.15
34506;BME280;20748;42.632;23.198;2022-10-23T13:59:59;92708.41;;;21.94;32.82